sensor_id;sensor_type;location;lat;lon;timestamp;temperature;humidity
702;DHT22;334;48.808;9.222;2022-07-05T00:00:05;23.10;1.00
702;DHT22;334;48.808;9.222;2022-07-05T00:01:07;23.10;1.00
702;DHT22;334;48.808;9.222;2022-07-05T00:02:09;23.10;1.00
702;DHT22;334;48.808;9.222;2022-07-05T00:03:11;23.10;1.00
702;DHT22;334;48.808;9.222;2022-07-05T00:04:13;23.20;1.00
702;DHT22;334;48.808;9.222;2022-07-05T00:05:15;23.20;1.00
702;DHT22;334;48.808;9.222;2022-07-05T00:06:17;23.20;1.00
702;DHT22;334;48.808;9.222;2022-07-05T00:07:20;23.20;1.00
702;DHT22;334;48.808;9.222;2022-07-05T00:08:24;23.10;1.00
702;DHT22;334;48.808;9.222;2022-07-05T00:09:27;23.10;1.00
702;DHT22;334;48.808;9.222;2022-07-05T00:10:29;23.20;1.00
702;DHT22;334;48.808;9.222;2022-07-05T00:11:31;23.10;1.00
702;DHT22;334;48.808;9.222;2022-07-05T00:12:34;23.10;1.00
702;DHT22;334;48.808;9.222;2022-07-05T00:13:36;23.20;1.00
702;DHT22;334;48.808;9.222;2022-07-05T00:14:39;23.10;1.00
702;DHT22;334;48.808;9.222;2022-07-05T00:15:42;23.20;1.00
702;DHT22;334;48.808;9.222;2022-07-05T00:16:46;23.30;1.00
702;DHT22;334;48.808;9.222;2022-07-05T00:17:49;23.10;1.00
702;DHT22;334;48.808;9.222;2022-07-05T00:18:51;23.30;1.00
702;DHT22;334;48.808;9.222;2022-07-05T00:19:54;23.10;1.00
702;DHT22;334;48.808;9.222;2022-07-05T00:20:56;23.10;1.00
702;DHT22;334;48.808;9.222;2022-07-05T00:21:57;23.10;1.00
702;DHT22;334;48.808;9.222;2022-07-05T00:22:59;23.10;1.00
702;DHT22;334;48.808;9.222;2022-07-05T00:24:01;23.10;1.00
702;DHT22;334;48.808;9.222;2022-07-05T00:25:03;23.10;1.00
702;DHT22;334;48.808;9.222;2022-07-05T00:26:06;23.10;1.00
702;DHT22;334;48.808;9.222;2022-07-05T00:27:08;23.10;1.00
702;DHT22;334;48.808;9.222;2022-07-05T00:28:11;23.10;1.00
702;DHT22;334;48.808;9.222;2022-07-05T00:29:14;23.00;1.00
702;DHT22;334;48.808;9.222;2022-07-05T00:30:16;23.00;1.00
702;DHT22;334;48.808;9.222;2022-07-05T00:31:18;23.20;1.00
702;DHT22;334;48.808;9.222;2022-07-05T00:32:21;23.00;1.00
702;DHT22;334;48.808;9.222;2022-07-05T00:33:22;23.00;1.00
702;DHT22;334;48.808;9.222;2022-07-05T00:34:24;23.00;1.00
702;DHT22;334;48.808;9.222;2022-07-05T00:35:26;23.00;1.00
702;DHT22;334;48.808;9.222;2022-07-05T00:36:28;23.20;1.00
702;DHT22;334;48.808;9.222;2022-07-05T00:37:36;22.90;1.00
702;DHT22;334;48.808;9.222;2022-07-05T00:38:38;22.90;1.00
702;DHT22;334;48.808;9.222;2022-07-05T00:39:43;22.90;1.00
702;DHT22;334;48.808;9.222;2022-07-05T00:40:45;23.00;1.00
702;DHT22;334;48.808;9.222;2022-07-05T00:41:50;22.90;1.00
702;DHT22;334;48.808;9.222;2022-07-05T00:42:52;22.90;1.00
702;DHT22;334;48.808;9.222;2022-07-05T00:44:05;22.90;1.00
702;DHT22;334;48.808;9.222;2022-07-05T00:45:08;22.80;1.00
702;DHT22;334;48.808;9.222;2022-07-05T00:46:13;22.80;1.00
702;DHT22;334;48.808;9.222;2022-07-05T00:47:16;22.70;1.00
702;DHT22;334;48.808;9.222;2022-07-05T00:48:19;22.80;1.00
702;DHT22;334;48.808;9.222;2022-07-05T00:49:22;22.70;1.00
702;DHT22;334;48.808;9.222;2022-07-05T00:50:24;22.70;1.00
702;DHT22;334;48.808;9.222;2022-07-05T00:51:26;22.70;1.00
702;DHT22;334;48.808;9.222;2022-07-05T00:52:30;22.70;1.00
702;DHT22;334;48.808;9.222;2022-07-05T00:53:33;22.70;1.00
702;DHT22;334;48.808;9.222;2022-07-05T00:54:36;22.60;1.00
702;DHT22;334;48.808;9.222;2022-07-05T00:55:39;22.60;1.00
702;DHT22;334;48.808;9.222;2022-07-05T00:56:43;22.60;1.00
702;DHT22;334;48.808;9.222;2022-07-05T00:57:44;22.60;1.00
702;DHT22;334;48.808;9.222;2022-07-05T00:58:48;22.60;1.00
702;DHT22;334;48.808;9.222;2022-07-05T00:59:51;22.50;1.00
702;DHT22;334;48.808;9.222;2022-07-05T01:00:53;22.50;1.00
702;DHT22;334;48.808;9.222;2022-07-05T01:01:55;22.50;1.00
702;DHT22;334;48.808;9.222;2022-07-05T01:02:59;22.60;1.00
702;DHT22;334;48.808;9.222;2022-07-05T01:04:01;22.50;1.00
702;DHT22;334;48.808;9.222;2022-07-05T01:05:03;22.50;1.00
702;DHT22;334;48.808;9.222;2022-07-05T01:06:06;22.50;1.00
702;DHT22;334;48.808;9.222;2022-07-05T01:07:09;22.50;1.00
702;DHT22;334;48.808;9.222;2022-07-05T01:08:11;22.50;1.00
702;DHT22;334;48.808;9.222;2022-07-05T01:09:16;22.50;1.00
702;DHT22;334;48.808;9.222;2022-07-05T01:10:19;22.40;1.00
702;DHT22;334;48.808;9.222;2022-07-05T01:11:21;22.40;1.00
702;DHT22;334;48.808;9.222;2022-07-05T01:12:24;22.40;1.00
702;DHT22;334;48.808;9.222;2022-07-05T01:13:26;22.40;1.00
702;DHT22;334;48.808;9.222;2022-07-05T01:16:45;22.40;1.00
702;DHT22;334;48.808;9.222;2022-07-05T01:17:47;22.40;1.00
702;DHT22;334;48.808;9.222;2022-07-05T01:18:49;22.40;1.00
702;DHT22;334;48.808;9.222;2022-07-05T01:19:51;22.30;1.00
702;DHT22;334;48.808;9.222;2022-07-05T01:20:54;22.30;1.00
702;DHT22;334;48.808;9.222;2022-07-05T01:21:57;22.30;1.00
702;DHT22;334;48.808;9.222;2022-07-05T01:23:05;22.30;1.00
702;DHT22;334;48.808;9.222;2022-07-05T01:24:11;22.30;1.00
702;DHT22;334;48.808;9.222;2022-07-05T01:25:13;22.20;1.00
702;DHT22;334;48.808;9.222;2022-07-05T01:26:15;22.20;1.00
702;DHT22;334;48.808;9.222;2022-07-05T01:27:20;22.20;1.00
702;DHT22;334;48.808;9.222;2022-07-05T01:28:23;22.30;1.00
702;DHT22;334;48.808;9.222;2022-07-05T01:29:25;22.20;1.00
702;DHT22;334;48.808;9.222;2022-07-05T01:30:27;22.20;1.00
702;DHT22;334;48.808;9.222;2022-07-05T01:31:29;22.20;1.00
702;DHT22;334;48.808;9.222;2022-07-05T01:32:31;22.10;1.00
702;DHT22;334;48.808;9.222;2022-07-05T01:33:33;22.10;1.00
702;DHT22;334;48.808;9.222;2022-07-05T01:34:39;22.10;1.00
702;DHT22;334;48.808;9.222;2022-07-05T01:35:43;22.10;1.00
702;DHT22;334;48.808;9.222;2022-07-05T01:36:45;22.10;1.00
702;DHT22;334;48.808;9.222;2022-07-05T01:37:48;22.10;1.00
702;DHT22;334;48.808;9.222;2022-07-05T01:38:51;22.10;1.00
702;DHT22;334;48.808;9.222;2022-07-05T01:39:52;22.00;1.00
702;DHT22;334;48.808;9.222;2022-07-05T01:40:54;22.10;1.00
702;DHT22;334;48.808;9.222;2022-07-05T01:41:56;22.00;1.00
702;DHT22;334;48.808;9.222;2022-07-05T01:42:59;22.00;1.00
702;DHT22;334;48.808;9.222;2022-07-05T01:44:05;22.00;1.00
702;DHT22;334;48.808;9.222;2022-07-05T01:45:08;21.90;1.00
702;DHT22;334;48.808;9.222;2022-07-05T01:46:11;21.90;1.00
702;DHT22;334;48.808;9.222;2022-07-05T01:47:15;21.90;1.00
702;DHT22;334;48.808;9.222;2022-07-05T01:48:19;21.80;1.00
702;DHT22;334;48.808;9.222;2022-07-05T01:49:23;21.80;1.00
702;DHT22;334;48.808;9.222;2022-07-05T01:50:29;21.80;1.00
702;DHT22;334;48.808;9.222;2022-07-05T01:51:37;21.80;1.00
702;DHT22;334;48.808;9.222;2022-07-05T01:52:43;21.80;1.00
702;DHT22;334;48.808;9.222;2022-07-05T01:53:46;21.80;1.00
702;DHT22;334;48.808;9.222;2022-07-05T01:54:51;21.80;1.00
702;DHT22;334;48.808;9.222;2022-07-05T01:55:59;21.80;1.00
702;DHT22;334;48.808;9.222;2022-07-05T01:57:01;21.80;1.00
702;DHT22;334;48.808;9.222;2022-07-05T01:58:04;21.80;1.00
702;DHT22;334;48.808;9.222;2022-07-05T01:59:06;21.80;1.00
702;DHT22;334;48.808;9.222;2022-07-05T02:00:09;21.80;1.00
702;DHT22;334;48.808;9.222;2022-07-05T02:01:12;21.70;1.00
702;DHT22;334;48.808;9.222;2022-07-05T02:02:14;21.70;1.00
702;DHT22;334;48.808;9.222;2022-07-05T02:03:22;21.70;1.00
702;DHT22;334;48.808;9.222;2022-07-05T02:04:44;21.90;1.00
702;DHT22;334;48.808;9.222;2022-07-05T02:05:47;21.70;1.00
702;DHT22;334;48.808;9.222;2022-07-05T02:06:48;21.70;1.00
702;DHT22;334;48.808;9.222;2022-07-05T02:07:50;21.80;1.00
702;DHT22;334;48.808;9.222;2022-07-05T02:08:52;21.70;1.00
702;DHT22;334;48.808;9.222;2022-07-05T02:09:54;21.60;1.00
702;DHT22;334;48.808;9.222;2022-07-05T02:10:57;21.60;1.00
702;DHT22;334;48.808;9.222;2022-07-05T02:11:59;21.60;1.00
702;DHT22;334;48.808;9.222;2022-07-05T02:13:02;21.60;1.00
702;DHT22;334;48.808;9.222;2022-07-05T02:14:05;21.60;1.00
702;DHT22;334;48.808;9.222;2022-07-05T02:15:07;21.60;1.00
702;DHT22;334;48.808;9.222;2022-07-05T02:16:09;21.50;1.00
702;DHT22;334;48.808;9.222;2022-07-05T02:17:11;21.50;1.00
702;DHT22;334;48.808;9.222;2022-07-05T02:18:13;21.50;1.00
702;DHT22;334;48.808;9.222;2022-07-05T02:19:15;21.50;1.00
702;DHT22;334;48.808;9.222;2022-07-05T02:20:17;21.50;1.00
702;DHT22;334;48.808;9.222;2022-07-05T02:21:19;21.50;1.00
702;DHT22;334;48.808;9.222;2022-07-05T02:22:21;21.50;1.00
702;DHT22;334;48.808;9.222;2022-07-05T02:23:23;21.50;1.00
702;DHT22;334;48.808;9.222;2022-07-05T02:24:26;21.50;1.00
702;DHT22;334;48.808;9.222;2022-07-05T02:25:28;21.50;1.00
702;DHT22;334;48.808;9.222;2022-07-05T02:26:30;21.40;1.00
702;DHT22;334;48.808;9.222;2022-07-05T02:27:32;21.40;1.00
702;DHT22;334;48.808;9.222;2022-07-05T02:28:34;21.40;1.00
702;DHT22;334;48.808;9.222;2022-07-05T02:29:36;21.30;1.00
702;DHT22;334;48.808;9.222;2022-07-05T02:30:38;21.30;1.00
702;DHT22;334;48.808;9.222;2022-07-05T02:31:40;21.40;1.00
702;DHT22;334;48.808;9.222;2022-07-05T02:32:42;21.20;1.00
702;DHT22;334;48.808;9.222;2022-07-05T02:33:44;21.30;1.00
702;DHT22;334;48.808;9.222;2022-07-05T02:34:45;21.20;1.00
702;DHT22;334;48.808;9.222;2022-07-05T02:35:49;21.30;1.00
702;DHT22;334;48.808;9.222;2022-07-05T02:36:52;21.20;1.00
702;DHT22;334;48.808;9.222;2022-07-05T02:37:54;21.30;1.00
702;DHT22;334;48.808;9.222;2022-07-05T02:38:55;21.30;1.00
702;DHT22;334;48.808;9.222;2022-07-05T02:39:57;21.30;1.00
702;DHT22;334;48.808;9.222;2022-07-05T02:40:59;21.30;1.00
702;DHT22;334;48.808;9.222;2022-07-05T02:42:02;21.30;1.00
702;DHT22;334;48.808;9.222;2022-07-05T02:43:04;21.20;1.00
702;DHT22;334;48.808;9.222;2022-07-05T02:44:15;21.20;1.00
702;DHT22;334;48.808;9.222;2022-07-05T02:45:17;21.20;1.00
702;DHT22;334;48.808;9.222;2022-07-05T02:46:19;21.20;1.00
702;DHT22;334;48.808;9.222;2022-07-05T02:47:21;21.20;1.00
702;DHT22;334;48.808;9.222;2022-07-05T02:48:23;21.20;1.00
702;DHT22;334;48.808;9.222;2022-07-05T02:49:25;21.10;1.00
702;DHT22;334;48.808;9.222;2022-07-05T02:50:27;21.20;1.00
702;DHT22;334;48.808;9.222;2022-07-05T02:51:29;21.20;1.00
702;DHT22;334;48.808;9.222;2022-07-05T02:52:31;21.20;1.00
702;DHT22;334;48.808;9.222;2022-07-05T02:53:32;21.20;1.00
702;DHT22;334;48.808;9.222;2022-07-05T02:54:35;21.20;1.00
702;DHT22;334;48.808;9.222;2022-07-05T02:55:37;21.20;1.00
702;DHT22;334;48.808;9.222;2022-07-05T02:56:39;21.20;1.00
702;DHT22;334;48.808;9.222;2022-07-05T02:57:41;21.20;1.00
702;DHT22;334;48.808;9.222;2022-07-05T02:58:43;21.20;1.00
702;DHT22;334;48.808;9.222;2022-07-05T02:59:44;21.20;1.00
702;DHT22;334;48.808;9.222;2022-07-05T03:00:47;21.20;1.00
702;DHT22;334;48.808;9.222;2022-07-05T03:01:49;21.20;1.00
702;DHT22;334;48.808;9.222;2022-07-05T03:02:51;21.10;1.00
702;DHT22;334;48.808;9.222;2022-07-05T03:03:54;21.20;1.00
702;DHT22;334;48.808;9.222;2022-07-05T03:04:56;21.30;1.00
702;DHT22;334;48.808;9.222;2022-07-05T03:05:57;21.10;1.00
702;DHT22;334;48.808;9.222;2022-07-05T03:06:59;21.10;1.00
702;DHT22;334;48.808;9.222;2022-07-05T03:08:01;21.10;1.00
702;DHT22;334;48.808;9.222;2022-07-05T03:09:03;21.10;1.00
702;DHT22;334;48.808;9.222;2022-07-05T03:10:06;21.20;1.00
702;DHT22;334;48.808;9.222;2022-07-05T03:11:08;21.10;1.00
702;DHT22;334;48.808;9.222;2022-07-05T03:12:10;21.00;1.00
702;DHT22;334;48.808;9.222;2022-07-05T03:13:12;21.00;1.00
702;DHT22;334;48.808;9.222;2022-07-05T03:14:14;21.00;1.00
702;DHT22;334;48.808;9.222;2022-07-05T03:15:16;21.00;1.00
702;DHT22;334;48.808;9.222;2022-07-05T03:16:18;21.10;1.00
702;DHT22;334;48.808;9.222;2022-07-05T03:17:20;21.00;1.00
702;DHT22;334;48.808;9.222;2022-07-05T03:18:24;21.00;1.00
702;DHT22;334;48.808;9.222;2022-07-05T03:19:27;21.00;1.00
702;DHT22;334;48.808;9.222;2022-07-05T03:20:28;21.00;1.00
702;DHT22;334;48.808;9.222;2022-07-05T03:21:32;21.00;1.00
702;DHT22;334;48.808;9.222;2022-07-05T03:22:35;21.00;1.00
702;DHT22;334;48.808;9.222;2022-07-05T03:23:37;20.90;1.00
702;DHT22;334;48.808;9.222;2022-07-05T03:24:39;20.90;1.00
702;DHT22;334;48.808;9.222;2022-07-05T03:25:42;20.90;1.00
702;DHT22;334;48.808;9.222;2022-07-05T03:26:44;20.90;1.00
702;DHT22;334;48.808;9.222;2022-07-05T03:27:46;20.90;1.00
702;DHT22;334;48.808;9.222;2022-07-05T03:28:48;20.90;1.00
702;DHT22;334;48.808;9.222;2022-07-05T03:29:52;20.90;1.00
702;DHT22;334;48.808;9.222;2022-07-05T03:30:54;20.90;1.00
702;DHT22;334;48.808;9.222;2022-07-05T03:31:56;20.80;1.00
702;DHT22;334;48.808;9.222;2022-07-05T03:32:58;20.80;1.00
702;DHT22;334;48.808;9.222;2022-07-05T03:34:01;20.80;1.00
702;DHT22;334;48.808;9.222;2022-07-05T03:35:03;20.80;1.00
702;DHT22;334;48.808;9.222;2022-07-05T03:36:07;20.80;1.00
702;DHT22;334;48.808;9.222;2022-07-05T03:37:12;20.80;1.00
702;DHT22;334;48.808;9.222;2022-07-05T03:38:13;20.70;1.00
702;DHT22;334;48.808;9.222;2022-07-05T03:39:15;20.70;1.00
702;DHT22;334;48.808;9.222;2022-07-05T03:40:18;20.80;1.00
702;DHT22;334;48.808;9.222;2022-07-05T03:41:19;20.70;1.00
702;DHT22;334;48.808;9.222;2022-07-05T03:42:22;20.70;1.00
702;DHT22;334;48.808;9.222;2022-07-05T03:43:37;20.70;1.00
702;DHT22;334;48.808;9.222;2022-07-05T03:44:39;20.70;1.00
702;DHT22;334;48.808;9.222;2022-07-05T03:45:43;20.70;1.00
702;DHT22;334;48.808;9.222;2022-07-05T03:46:45;20.70;1.00
702;DHT22;334;48.808;9.222;2022-07-05T03:47:51;20.70;1.00
702;DHT22;334;48.808;9.222;2022-07-05T03:48:53;20.70;1.00
702;DHT22;334;48.808;9.222;2022-07-05T03:49:55;20.70;1.00
702;DHT22;334;48.808;9.222;2022-07-05T03:50:56;20.70;1.00
702;DHT22;334;48.808;9.222;2022-07-05T03:51:58;20.60;1.00
702;DHT22;334;48.808;9.222;2022-07-05T03:53:01;20.70;1.00
702;DHT22;334;48.808;9.222;2022-07-05T03:54:03;20.70;1.00
702;DHT22;334;48.808;9.222;2022-07-05T03:55:06;20.70;1.00
702;DHT22;334;48.808;9.222;2022-07-05T03:56:08;20.70;1.00
702;DHT22;334;48.808;9.222;2022-07-05T03:57:11;20.80;1.00
702;DHT22;334;48.808;9.222;2022-07-05T03:58:13;20.70;1.00
702;DHT22;334;48.808;9.222;2022-07-05T03:59:16;20.70;1.00
702;DHT22;334;48.808;9.222;2022-07-05T04:00:18;20.70;1.00
702;DHT22;334;48.808;9.222;2022-07-05T04:01:20;20.70;1.00
702;DHT22;334;48.808;9.222;2022-07-05T04:02:22;20.70;1.00
702;DHT22;334;48.808;9.222;2022-07-05T04:03:24;20.70;1.00
702;DHT22;334;48.808;9.222;2022-07-05T04:04:26;20.70;1.00
702;DHT22;334;48.808;9.222;2022-07-05T04:05:28;20.70;1.00
702;DHT22;334;48.808;9.222;2022-07-05T04:06:30;20.70;1.00
702;DHT22;334;48.808;9.222;2022-07-05T04:07:33;20.80;1.00
702;DHT22;334;48.808;9.222;2022-07-05T04:08:35;20.80;1.00
702;DHT22;334;48.808;9.222;2022-07-05T04:09:37;20.70;1.00
702;DHT22;334;48.808;9.222;2022-07-05T04:10:40;20.60;1.00
702;DHT22;334;48.808;9.222;2022-07-05T04:11:42;20.60;1.00
702;DHT22;334;48.808;9.222;2022-07-05T04:12:46;20.60;1.00
702;DHT22;334;48.808;9.222;2022-07-05T04:13:48;20.60;1.00
702;DHT22;334;48.808;9.222;2022-07-05T04:14:50;20.70;1.00
702;DHT22;334;48.808;9.222;2022-07-05T04:15:52;20.80;1.00
702;DHT22;334;48.808;9.222;2022-07-05T04:16:57;20.60;1.00
702;DHT22;334;48.808;9.222;2022-07-05T04:17:59;20.60;1.00
702;DHT22;334;48.808;9.222;2022-07-05T04:19:01;20.70;1.00
702;DHT22;334;48.808;9.222;2022-07-05T04:20:03;20.60;1.00
702;DHT22;334;48.808;9.222;2022-07-05T04:21:06;20.60;1.00
702;DHT22;334;48.808;9.222;2022-07-05T04:22:08;20.70;1.00
702;DHT22;334;48.808;9.222;2022-07-05T04:23:13;20.60;1.00
702;DHT22;334;48.808;9.222;2022-07-05T04:24:15;20.60;1.00
702;DHT22;334;48.808;9.222;2022-07-05T04:25:18;20.60;1.00
702;DHT22;334;48.808;9.222;2022-07-05T04:26:20;20.60;1.00
702;DHT22;334;48.808;9.222;2022-07-05T04:27:22;20.60;1.00
702;DHT22;334;48.808;9.222;2022-07-05T04:28:27;20.60;1.00
702;DHT22;334;48.808;9.222;2022-07-05T04:29:31;20.60;1.00
702;DHT22;334;48.808;9.222;2022-07-05T04:30:33;20.60;1.00
702;DHT22;334;48.808;9.222;2022-07-05T04:31:36;20.60;1.00
702;DHT22;334;48.808;9.222;2022-07-05T04:32:38;20.50;1.00
702;DHT22;334;48.808;9.222;2022-07-05T04:33:40;20.60;1.00
702;DHT22;334;48.808;9.222;2022-07-05T04:34:43;20.50;1.00
702;DHT22;334;48.808;9.222;2022-07-05T04:35:46;20.60;1.00
702;DHT22;334;48.808;9.222;2022-07-05T04:36:51;20.60;1.00
702;DHT22;334;48.808;9.222;2022-07-05T04:38:02;20.50;1.00
702;DHT22;334;48.808;9.222;2022-07-05T04:39:19;20.50;1.00
702;DHT22;334;48.808;9.222;2022-07-05T04:40:22;20.50;1.00
702;DHT22;334;48.808;9.222;2022-07-05T04:41:23;20.60;1.00
702;DHT22;334;48.808;9.222;2022-07-05T04:42:26;20.60;1.00
702;DHT22;334;48.808;9.222;2022-07-05T04:45:15;20.60;1.40
702;DHT22;334;48.808;9.222;2022-07-05T04:46:19;20.60;1.00
702;DHT22;334;48.808;9.222;2022-07-05T04:47:21;20.60;1.00
702;DHT22;334;48.808;9.222;2022-07-05T04:48:23;20.60;1.00
702;DHT22;334;48.808;9.222;2022-07-05T04:49:25;20.60;1.00
702;DHT22;334;48.808;9.222;2022-07-05T04:50:27;20.60;1.00
702;DHT22;334;48.808;9.222;2022-07-05T04:51:31;20.70;1.00
702;DHT22;334;48.808;9.222;2022-07-05T04:52:33;20.60;1.00
702;DHT22;334;48.808;9.222;2022-07-05T04:53:35;20.70;1.00
702;DHT22;334;48.808;9.222;2022-07-05T04:54:38;20.70;1.00
702;DHT22;334;48.808;9.222;2022-07-05T04:55:41;20.70;1.00
702;DHT22;334;48.808;9.222;2022-07-05T04:56:43;20.70;1.00
702;DHT22;334;48.808;9.222;2022-07-05T04:57:44;20.80;1.00
702;DHT22;334;48.808;9.222;2022-07-05T04:58:46;20.90;1.00
702;DHT22;334;48.808;9.222;2022-07-05T04:59:49;20.80;1.00
702;DHT22;334;48.808;9.222;2022-07-05T05:00:51;20.80;1.00
702;DHT22;334;48.808;9.222;2022-07-05T05:01:54;20.80;1.00
702;DHT22;334;48.808;9.222;2022-07-05T05:02:55;20.80;1.00
702;DHT22;334;48.808;9.222;2022-07-05T05:03:58;20.80;1.00
702;DHT22;334;48.808;9.222;2022-07-05T05:05:00;20.90;1.00
702;DHT22;334;48.808;9.222;2022-07-05T05:06:02;21.00;1.00
702;DHT22;334;48.808;9.222;2022-07-05T05:07:04;20.90;1.00
702;DHT22;334;48.808;9.222;2022-07-05T05:08:07;20.90;1.00
702;DHT22;334;48.808;9.222;2022-07-05T05:09:09;21.00;1.00
702;DHT22;334;48.808;9.222;2022-07-05T05:10:11;21.00;1.00
702;DHT22;334;48.808;9.222;2022-07-05T05:11:13;21.00;1.00
702;DHT22;334;48.808;9.222;2022-07-05T05:12:15;21.00;1.00
702;DHT22;334;48.808;9.222;2022-07-05T05:13:17;21.10;1.00
702;DHT22;334;48.808;9.222;2022-07-05T05:14:19;21.10;1.00
702;DHT22;334;48.808;9.222;2022-07-05T05:15:21;21.10;1.00
702;DHT22;334;48.808;9.222;2022-07-05T05:16:23;21.20;1.00
702;DHT22;334;48.808;9.222;2022-07-05T05:17:25;21.20;1.00
702;DHT22;334;48.808;9.222;2022-07-05T05:18:37;21.20;1.00
702;DHT22;334;48.808;9.222;2022-07-05T05:19:39;21.30;1.00
702;DHT22;334;48.808;9.222;2022-07-05T05:20:42;21.30;1.00
702;DHT22;334;48.808;9.222;2022-07-05T05:21:43;21.30;1.00
702;DHT22;334;48.808;9.222;2022-07-05T05:22:47;21.30;1.00
702;DHT22;334;48.808;9.222;2022-07-05T05:23:48;21.30;1.00
702;DHT22;334;48.808;9.222;2022-07-05T05:24:50;21.30;1.00
702;DHT22;334;48.808;9.222;2022-07-05T05:25:52;21.30;1.00
702;DHT22;334;48.808;9.222;2022-07-05T05:26:54;21.50;1.00
702;DHT22;334;48.808;9.222;2022-07-05T05:27:58;21.40;1.00
702;DHT22;334;48.808;9.222;2022-07-05T05:29:00;21.40;1.00
702;DHT22;334;48.808;9.222;2022-07-05T05:30:02;21.40;1.00
702;DHT22;334;48.808;9.222;2022-07-05T05:31:04;21.40;1.00
702;DHT22;334;48.808;9.222;2022-07-05T05:32:06;21.50;1.00
702;DHT22;334;48.808;9.222;2022-07-05T05:33:08;21.50;1.00
702;DHT22;334;48.808;9.222;2022-07-05T05:34:10;21.50;1.00
702;DHT22;334;48.808;9.222;2022-07-05T05:35:11;21.60;1.00
702;DHT22;334;48.808;9.222;2022-07-05T05:36:13;21.60;1.00
702;DHT22;334;48.808;9.222;2022-07-05T05:37:17;21.60;1.00
702;DHT22;334;48.808;9.222;2022-07-05T05:38:19;21.70;1.00
702;DHT22;334;48.808;9.222;2022-07-05T05:39:21;21.70;1.00
702;DHT22;334;48.808;9.222;2022-07-05T05:40:24;21.80;1.00
702;DHT22;334;48.808;9.222;2022-07-05T05:41:27;21.80;1.00
702;DHT22;334;48.808;9.222;2022-07-05T05:42:29;21.80;1.00
702;DHT22;334;48.808;9.222;2022-07-05T05:43:31;21.90;1.00
702;DHT22;334;48.808;9.222;2022-07-05T05:44:32;21.90;1.00
702;DHT22;334;48.808;9.222;2022-07-05T05:45:37;22.10;1.00
702;DHT22;334;48.808;9.222;2022-07-05T05:46:38;22.00;1.00
702;DHT22;334;48.808;9.222;2022-07-05T05:48:50;22.10;1.00
702;DHT22;334;48.808;9.222;2022-07-05T05:49:52;22.20;1.00
702;DHT22;334;48.808;9.222;2022-07-05T05:50:53;22.30;1.00
702;DHT22;334;48.808;9.222;2022-07-05T05:51:56;22.30;1.00
702;DHT22;334;48.808;9.222;2022-07-05T05:52:58;22.40;1.00
702;DHT22;334;48.808;9.222;2022-07-05T05:54:00;22.50;1.00
702;DHT22;334;48.808;9.222;2022-07-05T05:55:02;22.50;1.00
702;DHT22;334;48.808;9.222;2022-07-05T05:56:06;22.60;1.00
702;DHT22;334;48.808;9.222;2022-07-05T05:57:10;22.70;1.00
702;DHT22;334;48.808;9.222;2022-07-05T05:58:21;22.80;1.00
702;DHT22;334;48.808;9.222;2022-07-05T05:59:24;22.90;1.00
702;DHT22;334;48.808;9.222;2022-07-05T06:00:26;22.90;1.00
702;DHT22;334;48.808;9.222;2022-07-05T06:01:28;23.00;1.00
702;DHT22;334;48.808;9.222;2022-07-05T06:02:30;23.10;1.00
702;DHT22;334;48.808;9.222;2022-07-05T06:03:32;23.40;1.00
702;DHT22;334;48.808;9.222;2022-07-05T06:04:34;23.30;1.00
702;DHT22;334;48.808;9.222;2022-07-05T06:05:36;23.40;1.00
702;DHT22;334;48.808;9.222;2022-07-05T06:06:38;23.40;1.00
702;DHT22;334;48.808;9.222;2022-07-05T06:07:50;23.50;1.00
702;DHT22;334;48.808;9.222;2022-07-05T06:08:53;23.60;1.00
702;DHT22;334;48.808;9.222;2022-07-05T06:09:55;23.70;1.00
702;DHT22;334;48.808;9.222;2022-07-05T06:10:57;23.80;1.00
702;DHT22;334;48.808;9.222;2022-07-05T06:12:05;23.90;1.00
702;DHT22;334;48.808;9.222;2022-07-05T06:13:08;24.00;1.00
702;DHT22;334;48.808;9.222;2022-07-05T06:14:09;24.10;1.00
702;DHT22;334;48.808;9.222;2022-07-05T06:15:13;24.10;1.00
702;DHT22;334;48.808;9.222;2022-07-05T06:16:14;24.20;1.00
702;DHT22;334;48.808;9.222;2022-07-05T06:17:16;24.50;1.00
702;DHT22;334;48.808;9.222;2022-07-05T06:18:18;24.40;1.00
702;DHT22;334;48.808;9.222;2022-07-05T06:19:20;24.50;1.00
702;DHT22;334;48.808;9.222;2022-07-05T06:20:24;24.60;1.00
702;DHT22;334;48.808;9.222;2022-07-05T06:21:27;24.70;1.00
702;DHT22;334;48.808;9.222;2022-07-05T06:22:31;24.80;1.00
702;DHT22;334;48.808;9.222;2022-07-05T06:23:35;24.90;1.00
702;DHT22;334;48.808;9.222;2022-07-05T06:24:38;24.90;1.00
702;DHT22;334;48.808;9.222;2022-07-05T06:25:55;25.00;1.00
702;DHT22;334;48.808;9.222;2022-07-05T06:26:56;25.10;1.00
702;DHT22;334;48.808;9.222;2022-07-05T06:28:05;25.20;1.00
702;DHT22;334;48.808;9.222;2022-07-05T06:29:07;25.30;1.00
702;DHT22;334;48.808;9.222;2022-07-05T06:30:10;25.30;1.00
702;DHT22;334;48.808;9.222;2022-07-05T06:31:12;25.40;1.00
702;DHT22;334;48.808;9.222;2022-07-05T06:32:13;25.40;1.00
702;DHT22;334;48.808;9.222;2022-07-05T06:33:16;25.40;1.00
702;DHT22;334;48.808;9.222;2022-07-05T06:34:17;25.50;1.00
702;DHT22;334;48.808;9.222;2022-07-05T06:35:20;25.50;1.00
702;DHT22;334;48.808;9.222;2022-07-05T06:36:22;25.60;1.00
702;DHT22;334;48.808;9.222;2022-07-05T06:37:23;25.60;1.00
702;DHT22;334;48.808;9.222;2022-07-05T06:38:25;25.60;1.00
702;DHT22;334;48.808;9.222;2022-07-05T06:39:27;25.70;1.00
702;DHT22;334;48.808;9.222;2022-07-05T06:40:32;25.70;1.00
702;DHT22;334;48.808;9.222;2022-07-05T06:41:34;25.70;1.00
702;DHT22;334;48.808;9.222;2022-07-05T06:42:36;25.80;1.00
702;DHT22;334;48.808;9.222;2022-07-05T06:43:38;25.80;1.00
702;DHT22;334;48.808;9.222;2022-07-05T06:44:40;25.80;1.00
702;DHT22;334;48.808;9.222;2022-07-05T06:45:41;25.80;1.00
702;DHT22;334;48.808;9.222;2022-07-05T06:46:44;25.90;1.00
702;DHT22;334;48.808;9.222;2022-07-05T06:47:57;25.80;1.00
702;DHT22;334;48.808;9.222;2022-07-05T06:49:00;25.80;1.00
702;DHT22;334;48.808;9.222;2022-07-05T06:50:02;25.80;1.00
702;DHT22;334;48.808;9.222;2022-07-05T06:51:06;25.70;1.00
702;DHT22;334;48.808;9.222;2022-07-05T06:52:08;25.70;1.00
702;DHT22;334;48.808;9.222;2022-07-05T06:53:13;25.70;1.00
702;DHT22;334;48.808;9.222;2022-07-05T06:54:14;25.80;1.00
702;DHT22;334;48.808;9.222;2022-07-05T06:55:36;25.80;1.00
702;DHT22;334;48.808;9.222;2022-07-05T06:56:38;25.80;1.00
702;DHT22;334;48.808;9.222;2022-07-05T06:58:03;25.80;1.00
702;DHT22;334;48.808;9.222;2022-07-05T06:59:13;25.90;1.00
702;DHT22;334;48.808;9.222;2022-07-05T07:00:38;25.80;1.00
702;DHT22;334;48.808;9.222;2022-07-05T07:02:01;25.80;1.00
702;DHT22;334;48.808;9.222;2022-07-05T07:03:23;26.00;1.00
702;DHT22;334;48.808;9.222;2022-07-05T07:04:46;25.80;1.00
702;DHT22;334;48.808;9.222;2022-07-05T07:06:07;25.80;1.00
702;DHT22;334;48.808;9.222;2022-07-05T07:07:10;25.80;1.00
702;DHT22;334;48.808;9.222;2022-07-05T07:08:31;25.80;1.00
702;DHT22;334;48.808;9.222;2022-07-05T07:09:56;25.80;1.00
702;DHT22;334;48.808;9.222;2022-07-05T07:10:58;25.80;1.00
702;DHT22;334;48.808;9.222;2022-07-05T07:12:00;25.80;1.00
702;DHT22;334;48.808;9.222;2022-07-05T07:13:03;25.80;1.00
702;DHT22;334;48.808;9.222;2022-07-05T07:14:05;25.80;1.00
702;DHT22;334;48.808;9.222;2022-07-05T07:15:08;26.00;1.00
702;DHT22;334;48.808;9.222;2022-07-05T07:16:10;25.60;1.00
702;DHT22;334;48.808;9.222;2022-07-05T07:17:13;25.80;1.00
702;DHT22;334;48.808;9.222;2022-07-05T07:18:14;25.80;1.00
702;DHT22;334;48.808;9.222;2022-07-05T07:19:17;26.00;1.00